createdAt,value
2023-05-06T00:11:05.397Z,100
2023-05-06T00:21:06.422Z,100
2023-05-06T00:31:07.105Z,100
2023-05-06T00:41:07.817Z,100
2023-05-06T00:51:08.005Z,100
2023-05-06T01:01:08.886Z,100
2023-05-06T01:11:09.817Z,100
2023-05-06T01:21:10.363Z,100
2023-05-06T01:31:10.644Z,100
2023-05-06T02:11:12.760Z,100
2023-05-06T02:51:14.621Z,100
2023-05-06T03:01:15.174Z,100
2023-05-06T03:21:16.344Z,100
2023-05-06T04:21:19.691Z,100
2023-05-06T04:41:20.662Z,100
2023-05-06T05:01:22.443Z,100
2023-05-06T05:11:22.658Z,100
2023-05-06T05:21:23.105Z,100
2023-05-06T05:31:23.585Z,100
2023-05-06T05:41:24.544Z,100
2023-05-06T06:11:26.484Z,100
2023-05-06T06:21:26.609Z,100
2023-05-06T06:31:27.137Z,100
2023-05-06T06:41:27.924Z,100
2023-05-06T06:51:28.952Z,100
2023-05-06T07:01:29.514Z,100
2023-05-06T07:11:30.177Z,100
2023-05-06T07:21:31.094Z,100
2023-05-06T07:31:31.862Z,100
2023-05-06T07:51:33.487Z,100
2023-05-06T08:01:33.727Z,100
2023-05-06T08:11:34.532Z,100
2023-05-06T08:21:34.981Z,100
2023-05-06T08:31:35.584Z,100
2023-05-06T08:51:36.821Z,100
2023-05-06T09:01:38.012Z,98
2023-05-06T09:21:38.729Z,94
2023-05-06T09:31:39.491Z,92
2023-05-06T09:41:40.309Z,91
2023-05-06T09:51:40.717Z,90
2023-05-06T10:01:41.436Z,90
2023-05-06T10:11:42.341Z,89
2023-05-06T10:21:43.380Z,86
2023-05-06T10:41:43.794Z,83
2023-05-06T10:51:44.759Z,81
2023-05-06T11:01:45.250Z,81
2023-05-06T11:11:45.631Z,81
2023-05-06T11:31:45.989Z,75
2023-05-06T11:41:46.724Z,77
2023-05-06T12:01:47.577Z,76
2023-05-06T12:21:49.164Z,72
2023-05-06T12:31:49.590Z,73
2023-05-06T12:41:49.878Z,73
2023-05-06T12:51:50.633Z,67
2023-05-06T13:01:51.723Z,69
2023-05-06T13:21:53.295Z,67
2023-05-06T13:31:53.670Z,68
2023-05-06T13:41:54.562Z,66
2023-05-06T13:51:55.139Z,66
2023-05-06T14:01:55.944Z,66
2023-05-06T14:21:56.999Z,66
2023-05-06T14:41:57.726Z,65
2023-05-06T15:01:58.032Z,66
2023-05-06T15:11:58.421Z,66
2023-05-06T15:21:58.965Z,67
2023-05-06T15:31:59.219Z,66
2023-05-06T15:41:59.360Z,67
2023-05-06T15:52:01.184Z,66
2023-05-06T16:22:01.970Z,68
2023-05-06T16:32:02.906Z,70
2023-05-06T16:42:03.319Z,70
2023-05-06T17:22:04.826Z,83
2023-05-06T17:32:05.303Z,90
2023-05-06T17:42:06.374Z,92
2023-05-06T18:02:07.593Z,99
2023-05-06T18:22:08.456Z,100
2023-05-06T18:32:08.861Z,100
2023-05-06T18:42:09.675Z,100
2023-05-06T18:52:10.662Z,100
2023-05-06T19:02:11.094Z,100
2023-05-06T19:12:11.422Z,100
2023-05-06T19:22:11.547Z,100
2023-05-06T19:32:12.638Z,100
2023-05-06T19:42:13.028Z,100
2023-05-06T19:52:13.175Z,100
2023-05-06T20:02:13.928Z,100
2023-05-06T20:12:14.713Z,100
2023-05-06T20:22:15.807Z,100
2023-05-06T20:32:16.848Z,100
2023-05-06T20:52:18.147Z,100
2023-05-06T21:02:18.665Z,100
2023-05-06T21:22:19.873Z,100
2023-05-06T21:32:20.913Z,100
2023-05-06T21:42:21.447Z,100
2023-05-06T21:52:22.047Z,100
2023-05-06T22:02:23.155Z,100
2023-05-06T22:12:23.877Z,100
2023-05-06T22:22:24.699Z,100
2023-05-06T22:32:24.882Z,100
2023-05-06T22:42:25.581Z,100
2023-05-06T22:52:26.675Z,100
2023-05-06T23:02:27.027Z,100
2023-05-06T23:12:27.726Z,100
2023-05-06T23:22:28.424Z,100
2023-05-06T23:32:28.834Z,100
2023-05-06T23:42:29.364Z,100
2023-05-06T23:52:30.178Z,100
